sensor_id;sensor_type;location;lat;lon;timestamp;P1;durP1;ratioP1;P2;durP2;ratioP2
15385;SDS011;7791;47.246;9.648;2022-12-18T00:00:14;34.00;;;14.50;;
15385;SDS011;7791;47.246;9.648;2022-12-18T00:02:40;37.57;;;15.03;;
15385;SDS011;7791;47.246;9.648;2022-12-18T00:05:06;35.70;;;14.47;;
15385;SDS011;7791;47.246;9.648;2022-12-18T00:07:33;34.33;;;14.43;;
15385;SDS011;7791;47.246;9.648;2022-12-18T00:10:04;37.20;;;15.33;;
15385;SDS011;7791;47.246;9.648;2022-12-18T00:12:31;32.30;;;13.57;;
15385;SDS011;7791;47.246;9.648;2022-12-18T00:14:57;33.70;;;14.83;;
15385;SDS011;7791;47.246;9.648;2022-12-18T00:17:23;36.17;;;14.70;;
15385;SDS011;7791;47.246;9.648;2022-12-18T00:19:50;35.77;;;14.80;;
15385;SDS011;7791;47.246;9.648;2022-12-18T00:22:16;30.87;;;13.63;;
15385;SDS011;7791;47.246;9.648;2022-12-18T00:24:42;35.03;;;14.13;;
15385;SDS011;7791;47.246;9.648;2022-12-18T00:27:13;34.17;;;14.03;;
15385;SDS011;7791;47.246;9.648;2022-12-18T00:29:39;28.80;;;12.00;;
15385;SDS011;7791;47.246;9.648;2022-12-18T00:32:06;32.00;;;13.73;;
15385;SDS011;7791;47.246;9.648;2022-12-18T00:34:34;33.97;;;12.87;;
15385;SDS011;7791;47.246;9.648;2022-12-18T00:37:00;36.93;;;15.33;;
15385;SDS011;7791;47.246;9.648;2022-12-18T00:39:25;36.30;;;16.03;;
15385;SDS011;7791;47.246;9.648;2022-12-18T00:41:52;34.53;;;13.70;;
15385;SDS011;7791;47.246;9.648;2022-12-18T00:44:22;31.77;;;13.23;;
15385;SDS011;7791;47.246;9.648;2022-12-18T00:46:48;36.20;;;13.43;;
15385;SDS011;7791;47.246;9.648;2022-12-18T00:49:14;31.33;;;12.43;;
15385;SDS011;7791;47.246;9.648;2022-12-18T00:51:41;30.80;;;14.43;;
15385;SDS011;7791;47.246;9.648;2022-12-18T00:54:07;35.03;;;13.97;;
15385;SDS011;7791;47.246;9.648;2022-12-18T00:56:34;35.23;;;14.83;;
15385;SDS011;7791;47.246;9.648;2022-12-18T00:59:01;35.77;;;15.20;;
15385;SDS011;7791;47.246;9.648;2022-12-18T01:01:30;35.73;;;14.53;;
15385;SDS011;7791;47.246;9.648;2022-12-18T01:03:56;33.67;;;14.03;;
15385;SDS011;7791;47.246;9.648;2022-12-18T01:06:24;33.20;;;14.07;;
15385;SDS011;7791;47.246;9.648;2022-12-18T01:08:51;32.90;;;13.77;;
15385;SDS011;7791;47.246;9.648;2022-12-18T01:11:19;34.57;;;13.73;;
15385;SDS011;7791;47.246;9.648;2022-12-18T01:13:46;33.20;;;13.07;;
15385;SDS011;7791;47.246;9.648;2022-12-18T01:16:13;28.90;;;12.80;;
15385;SDS011;7791;47.246;9.648;2022-12-18T01:18:49;31.73;;;12.90;;
15385;SDS011;7791;47.246;9.648;2022-12-18T01:21:22;35.70;;;13.87;;
15385;SDS011;7791;47.246;9.648;2022-12-18T01:23:50;32.77;;;13.93;;
15385;SDS011;7791;47.246;9.648;2022-12-18T01:26:17;29.27;;;13.03;;
15385;SDS011;7791;47.246;9.648;2022-12-18T01:28:43;28.83;;;12.40;;
15385;SDS011;7791;47.246;9.648;2022-12-18T01:31:10;29.07;;;12.53;;
15385;SDS011;7791;47.246;9.648;2022-12-18T01:33:38;25.73;;;11.70;;
15385;SDS011;7791;47.246;9.648;2022-12-18T01:36:06;29.97;;;12.30;;
15385;SDS011;7791;47.246;9.648;2022-12-18T01:38:34;29.33;;;12.17;;
15385;SDS011;7791;47.246;9.648;2022-12-18T01:41:00;26.77;;;11.90;;
15385;SDS011;7791;47.246;9.648;2022-12-18T01:43:41;26.83;;;12.27;;
15385;SDS011;7791;47.246;9.648;2022-12-18T01:46:11;28.37;;;11.97;;
15385;SDS011;7791;47.246;9.648;2022-12-18T01:48:38;26.30;;;11.97;;
15385;SDS011;7791;47.246;9.648;2022-12-18T01:51:10;29.17;;;11.97;;
15385;SDS011;7791;47.246;9.648;2022-12-18T01:53:56;27.63;;;11.53;;
15385;SDS011;7791;47.246;9.648;2022-12-18T01:56:24;25.37;;;10.93;;
15385;SDS011;7791;47.246;9.648;2022-12-18T01:58:52;25.47;;;11.07;;
15385;SDS011;7791;47.246;9.648;2022-12-18T02:01:24;26.27;;;11.97;;
15385;SDS011;7791;47.246;9.648;2022-12-18T02:03:51;27.03;;;11.53;;
15385;SDS011;7791;47.246;9.648;2022-12-18T02:06:19;24.70;;;11.43;;
15385;SDS011;7791;47.246;9.648;2022-12-18T02:08:53;29.17;;;12.90;;
15385;SDS011;7791;47.246;9.648;2022-12-18T02:11:31;32.53;;;12.10;;
15385;SDS011;7791;47.246;9.648;2022-12-18T02:14:07;33.67;;;12.00;;
15385;SDS011;7791;47.246;9.648;2022-12-18T02:16:43;27.07;;;11.03;;
15385;SDS011;7791;47.246;9.648;2022-12-18T02:19:20;24.37;;;10.97;;
15385;SDS011;7791;47.246;9.648;2022-12-18T02:22:11;34.63;;;12.10;;
15385;SDS011;7791;47.246;9.648;2022-12-18T02:24:53;29.37;;;11.70;;
15385;SDS011;7791;47.246;9.648;2022-12-18T02:27:28;26.47;;;11.43;;
15385;SDS011;7791;47.246;9.648;2022-12-18T02:29:59;32.03;;;11.57;;
15385;SDS011;7791;47.246;9.648;2022-12-18T02:32:28;29.43;;;10.77;;
15385;SDS011;7791;47.246;9.648;2022-12-18T02:34:58;29.50;;;11.27;;
15385;SDS011;7791;47.246;9.648;2022-12-18T02:37:27;25.33;;;10.87;;
15385;SDS011;7791;47.246;9.648;2022-12-18T02:39:57;101.40;;;31.07;;
15385;SDS011;7791;47.246;9.648;2022-12-18T02:42:26;51.43;;;17.63;;
15385;SDS011;7791;47.246;9.648;2022-12-18T02:44:55;31.43;;;12.27;;
15385;SDS011;7791;47.246;9.648;2022-12-18T02:47:21;25.53;;;10.90;;
15385;SDS011;7791;47.246;9.648;2022-12-18T02:49:52;25.00;;;10.90;;
15385;SDS011;7791;47.246;9.648;2022-12-18T02:52:28;22.37;;;10.13;;
15385;SDS011;7791;47.246;9.648;2022-12-18T02:55:04;28.23;;;11.27;;
15385;SDS011;7791;47.246;9.648;2022-12-18T02:57:44;25.83;;;10.50;;
15385;SDS011;7791;47.246;9.648;2022-12-18T03:00:16;29.03;;;10.87;;
15385;SDS011;7791;47.246;9.648;2022-12-18T03:02:47;23.33;;;9.87;;
15385;SDS011;7791;47.246;9.648;2022-12-18T03:05:19;27.07;;;11.17;;
15385;SDS011;7791;47.246;9.648;2022-12-18T03:07:50;19.97;;;9.13;;
15385;SDS011;7791;47.246;9.648;2022-12-18T03:10:23;24.57;;;9.43;;
15385;SDS011;7791;47.246;9.648;2022-12-18T03:12:56;21.13;;;8.93;;
15385;SDS011;7791;47.246;9.648;2022-12-18T03:15:30;22.27;;;9.00;;
15385;SDS011;7791;47.246;9.648;2022-12-18T03:18:01;21.13;;;8.70;;
15385;SDS011;7791;47.246;9.648;2022-12-18T03:20:31;20.70;;;8.63;;
15385;SDS011;7791;47.246;9.648;2022-12-18T03:23:00;17.67;;;8.67;;
15385;SDS011;7791;47.246;9.648;2022-12-18T03:25:31;20.50;;;8.97;;
15385;SDS011;7791;47.246;9.648;2022-12-18T03:28:01;21.33;;;8.83;;
15385;SDS011;7791;47.246;9.648;2022-12-18T03:30:30;26.40;;;9.33;;
15385;SDS011;7791;47.246;9.648;2022-12-18T03:33:01;22.10;;;9.80;;
15385;SDS011;7791;47.246;9.648;2022-12-18T03:35:31;24.57;;;10.17;;
15385;SDS011;7791;47.246;9.648;2022-12-18T03:38:01;25.40;;;10.30;;
15385;SDS011;7791;47.246;9.648;2022-12-18T03:40:29;29.33;;;11.00;;
15385;SDS011;7791;47.246;9.648;2022-12-18T03:43:07;35.70;;;11.43;;
15385;SDS011;7791;47.246;9.648;2022-12-18T03:45:41;28.37;;;10.00;;
15385;SDS011;7791;47.246;9.648;2022-12-18T03:48:14;24.90;;;9.80;;
15385;SDS011;7791;47.246;9.648;2022-12-18T03:50:45;19.47;;;8.17;;
15385;SDS011;7791;47.246;9.648;2022-12-18T03:53:17;27.23;;;10.23;;
15385;SDS011;7791;47.246;9.648;2022-12-18T03:55:49;20.37;;;8.40;;
15385;SDS011;7791;47.246;9.648;2022-12-18T03:58:18;33.27;;;10.30;;
15385;SDS011;7791;47.246;9.648;2022-12-18T04:00:48;24.83;;;8.60;;
15385;SDS011;7791;47.246;9.648;2022-12-18T04:03:17;25.17;;;10.40;;
15385;SDS011;7791;47.246;9.648;2022-12-18T04:05:46;20.13;;;9.23;;
15385;SDS011;7791;47.246;9.648;2022-12-18T04:08:16;17.17;;;7.87;;
15385;SDS011;7791;47.246;9.648;2022-12-18T04:10:44;14.90;;;7.73;;
15385;SDS011;7791;47.246;9.648;2022-12-18T04:13:10;16.33;;;7.70;;
15385;SDS011;7791;47.246;9.648;2022-12-18T04:15:37;18.50;;;8.47;;
15385;SDS011;7791;47.246;9.648;2022-12-18T04:18:04;30.10;;;10.43;;
15385;SDS011;7791;47.246;9.648;2022-12-18T04:20:30;23.80;;;9.93;;
15385;SDS011;7791;47.246;9.648;2022-12-18T04:22:56;24.80;;;8.97;;
15385;SDS011;7791;47.246;9.648;2022-12-18T04:25:39;23.23;;;9.47;;
15385;SDS011;7791;47.246;9.648;2022-12-18T04:28:06;24.97;;;9.40;;
15385;SDS011;7791;47.246;9.648;2022-12-18T04:30:34;30.20;;;17.87;;
15385;SDS011;7791;47.246;9.648;2022-12-18T04:33:02;30.70;;;16.43;;
15385;SDS011;7791;47.246;9.648;2022-12-18T04:35:33;23.33;;;10.40;;
15385;SDS011;7791;47.246;9.648;2022-12-18T04:37:58;22.87;;;10.53;;
15385;SDS011;7791;47.246;9.648;2022-12-18T04:40:25;21.80;;;8.83;;
15385;SDS011;7791;47.246;9.648;2022-12-18T04:42:53;25.07;;;10.67;;
15385;SDS011;7791;47.246;9.648;2022-12-18T04:45:20;19.93;;;10.00;;
15385;SDS011;7791;47.246;9.648;2022-12-18T04:47:46;20.60;;;8.43;;
15385;SDS011;7791;47.246;9.648;2022-12-18T04:50:14;22.40;;;9.90;;
15385;SDS011;7791;47.246;9.648;2022-12-18T04:52:42;23.13;;;8.70;;
15385;SDS011;7791;47.246;9.648;2022-12-18T04:55:08;18.97;;;8.97;;
15385;SDS011;7791;47.246;9.648;2022-12-18T05:00:20;23.63;;;9.43;;
15385;SDS011;7791;47.246;9.648;2022-12-18T05:02:46;18.53;;;7.73;;
15385;SDS011;7791;47.246;9.648;2022-12-18T05:05:14;18.07;;;8.37;;
15385;SDS011;7791;47.246;9.648;2022-12-18T05:07:40;19.13;;;8.30;;
15385;SDS011;7791;47.246;9.648;2022-12-18T05:10:07;19.43;;;8.43;;
15385;SDS011;7791;47.246;9.648;2022-12-18T05:12:33;20.70;;;8.83;;
15385;SDS011;7791;47.246;9.648;2022-12-18T05:14:59;15.43;;;7.17;;
15385;SDS011;7791;47.246;9.648;2022-12-18T05:17:29;22.20;;;8.50;;
15385;SDS011;7791;47.246;9.648;2022-12-18T05:19:56;21.43;;;8.13;;
15385;SDS011;7791;47.246;9.648;2022-12-18T05:22:23;18.97;;;8.30;;
15385;SDS011;7791;47.246;9.648;2022-12-18T05:24:49;19.10;;;8.83;;
15385;SDS011;7791;47.246;9.648;2022-12-18T05:27:18;19.43;;;8.57;;
15385;SDS011;7791;47.246;9.648;2022-12-18T05:29:44;25.33;;;9.47;;
15385;SDS011;7791;47.246;9.648;2022-12-18T05:32:10;20.77;;;9.40;;
15385;SDS011;7791;47.246;9.648;2022-12-18T05:34:37;18.73;;;8.60;;
15385;SDS011;7791;47.246;9.648;2022-12-18T05:37:05;15.43;;;7.17;;
15385;SDS011;7791;47.246;9.648;2022-12-18T05:39:32;21.60;;;8.70;;
15385;SDS011;7791;47.246;9.648;2022-12-18T05:41:58;20.03;;;7.97;;
15385;SDS011;7791;47.246;9.648;2022-12-18T05:44:24;19.93;;;8.00;;
15385;SDS011;7791;47.246;9.648;2022-12-18T05:46:50;19.13;;;8.57;;
15385;SDS011;7791;47.246;9.648;2022-12-18T05:49:16;20.13;;;7.27;;
15385;SDS011;7791;47.246;9.648;2022-12-18T05:51:42;21.50;;;8.60;;
15385;SDS011;7791;47.246;9.648;2022-12-18T05:54:08;15.80;;;7.23;;
15385;SDS011;7791;47.246;9.648;2022-12-18T05:56:35;17.43;;;8.37;;
15385;SDS011;7791;47.246;9.648;2022-12-18T05:59:02;20.53;;;7.40;;
15385;SDS011;7791;47.246;9.648;2022-12-18T06:01:28;20.50;;;8.07;;
15385;SDS011;7791;47.246;9.648;2022-12-18T06:03:55;16.70;;;7.37;;
15385;SDS011;7791;47.246;9.648;2022-12-18T06:06:22;18.57;;;7.93;;
15385;SDS011;7791;47.246;9.648;2022-12-18T06:08:50;22.40;;;7.47;;
15385;SDS011;7791;47.246;9.648;2022-12-18T06:11:18;18.67;;;7.80;;
15385;SDS011;7791;47.246;9.648;2022-12-18T06:13:50;20.40;;;8.20;;
15385;SDS011;7791;47.246;9.648;2022-12-18T06:16:16;18.70;;;8.20;;
15385;SDS011;7791;47.246;9.648;2022-12-18T06:18:43;17.03;;;7.93;;
15385;SDS011;7791;47.246;9.648;2022-12-18T06:21:09;19.70;;;7.90;;
15385;SDS011;7791;47.246;9.648;2022-12-18T06:23:35;19.47;;;7.10;;
15385;SDS011;7791;47.246;9.648;2022-12-18T06:26:03;17.93;;;7.97;;
15385;SDS011;7791;47.246;9.648;2022-12-18T06:28:31;17.00;;;7.30;;
15385;SDS011;7791;47.246;9.648;2022-12-18T06:30:58;16.63;;;6.67;;
15385;SDS011;7791;47.246;9.648;2022-12-18T06:33:32;17.60;;;7.53;;
15385;SDS011;7791;47.246;9.648;2022-12-18T06:35:59;20.03;;;7.80;;
15385;SDS011;7791;47.246;9.648;2022-12-18T06:38:26;20.60;;;8.00;;
15385;SDS011;7791;47.246;9.648;2022-12-18T06:40:54;19.17;;;7.23;;
15385;SDS011;7791;47.246;9.648;2022-12-18T06:43:21;22.30;;;8.17;;
15385;SDS011;7791;47.246;9.648;2022-12-18T06:45:57;24.57;;;8.83;;
15385;SDS011;7791;47.246;9.648;2022-12-18T06:48:28;24.80;;;9.27;;
15385;SDS011;7791;47.246;9.648;2022-12-18T06:50:54;20.53;;;8.57;;
15385;SDS011;7791;47.246;9.648;2022-12-18T06:53:20;28.03;;;8.83;;
15385;SDS011;7791;47.246;9.648;2022-12-18T06:55:47;22.83;;;8.63;;
15385;SDS011;7791;47.246;9.648;2022-12-18T06:58:13;20.70;;;8.53;;
15385;SDS011;7791;47.246;9.648;2022-12-18T07:00:41;22.93;;;8.30;;
15385;SDS011;7791;47.246;9.648;2022-12-18T07:03:08;19.13;;;9.33;;
15385;SDS011;7791;47.246;9.648;2022-12-18T07:05:39;26.87;;;9.23;;
15385;SDS011;7791;47.246;9.648;2022-12-18T07:08:06;18.63;;;9.17;;
15385;SDS011;7791;47.246;9.648;2022-12-18T07:10:33;21.13;;;10.20;;
15385;SDS011;7791;47.246;9.648;2022-12-18T07:12:59;26.37;;;9.97;;
15385;SDS011;7791;47.246;9.648;2022-12-18T07:18:30;28.27;;;10.47;;
15385;SDS011;7791;47.246;9.648;2022-12-18T07:21:02;22.97;;;10.73;;
15385;SDS011;7791;47.246;9.648;2022-12-18T07:23:29;23.77;;;9.63;;
15385;SDS011;7791;47.246;9.648;2022-12-18T07:25:55;22.33;;;8.23;;
15385;SDS011;7791;47.246;9.648;2022-12-18T07:28:25;18.40;;;8.20;;
15385;SDS011;7791;47.246;9.648;2022-12-18T07:31:08;21.00;;;8.50;;
15385;SDS011;7791;47.246;9.648;2022-12-18T07:33:38;18.23;;;8.33;;
15385;SDS011;7791;47.246;9.648;2022-12-18T07:36:04;22.97;;;9.17;;
15385;SDS011;7791;47.246;9.648;2022-12-18T07:38:31;26.20;;;8.83;;
15385;SDS011;7791;47.246;9.648;2022-12-18T07:40:59;18.43;;;7.80;;
15385;SDS011;7791;47.246;9.648;2022-12-18T07:43:26;17.80;;;8.23;;
15385;SDS011;7791;47.246;9.648;2022-12-18T07:45:58;21.10;;;8.90;;
15385;SDS011;7791;47.246;9.648;2022-12-18T07:48:27;25.30;;;9.63;;
15385;SDS011;7791;47.246;9.648;2022-12-18T07:50:57;28.80;;;10.60;;
15385;SDS011;7791;47.246;9.648;2022-12-18T07:53:23;27.23;;;9.87;;
15385;SDS011;7791;47.246;9.648;2022-12-18T07:55:54;26.17;;;10.13;;
15385;SDS011;7791;47.246;9.648;2022-12-18T07:58:20;23.20;;;10.07;;
15385;SDS011;7791;47.246;9.648;2022-12-18T08:00:47;24.23;;;9.73;;
15385;SDS011;7791;47.246;9.648;2022-12-18T08:03:14;26.13;;;9.97;;
15385;SDS011;7791;47.246;9.648;2022-12-18T08:05:41;20.67;;;9.53;;
15385;SDS011;7791;47.246;9.648;2022-12-18T08:08:08;24.40;;;10.20;;
15385;SDS011;7791;47.246;9.648;2022-12-18T08:10:34;27.00;;;12.07;;
15385;SDS011;7791;47.246;9.648;2022-12-18T08:12:59;29.50;;;11.80;;
15385;SDS011;7791;47.246;9.648;2022-12-18T08:15:26;32.87;;;13.53;;
15385;SDS011;7791;47.246;9.648;2022-12-18T08:17:54;37.37;;;13.30;;
15385;SDS011;7791;47.246;9.648;2022-12-18T08:20:23;45.03;;;17.63;;
15385;SDS011;7791;47.246;9.648;2022-12-18T08:22:49;52.10;;;22.80;;
15385;SDS011;7791;47.246;9.648;2022-12-18T08:25:17;61.63;;;25.93;;
15385;SDS011;7791;47.246;9.648;2022-12-18T08:27:44;36.43;;;16.00;;
15385;SDS011;7791;47.246;9.648;2022-12-18T08:30:10;43.13;;;17.50;;
15385;SDS011;7791;47.246;9.648;2022-12-18T08:32:40;55.03;;;21.00;;
15385;SDS011;7791;47.246;9.648;2022-12-18T08:35:06;44.00;;;21.87;;
15385;SDS011;7791;47.246;9.648;2022-12-18T08:37:33;45.33;;;22.73;;
15385;SDS011;7791;47.246;9.648;2022-12-18T08:39:59;64.47;;;24.77;;
15385;SDS011;7791;47.246;9.648;2022-12-18T08:42:26;37.80;;;17.40;;
15385;SDS011;7791;47.246;9.648;2022-12-18T08:44:52;35.00;;;16.60;;
15385;SDS011;7791;47.246;9.648;2022-12-18T08:50:02;41.33;;;21.33;;
15385;SDS011;7791;47.246;9.648;2022-12-18T08:52:31;114.67;;;24.47;;
15385;SDS011;7791;47.246;9.648;2022-12-18T08:54:58;40.97;;;21.60;;
15385;SDS011;7791;47.246;9.648;2022-12-18T08:57:30;45.27;;;23.73;;
15385;SDS011;7791;47.246;9.648;2022-12-18T08:59:57;45.37;;;23.20;;
15385;SDS011;7791;47.246;9.648;2022-12-18T09:02:22;48.53;;;23.93;;
15385;SDS011;7791;47.246;9.648;2022-12-18T09:04:49;50.93;;;25.53;;
15385;SDS011;7791;47.246;9.648;2022-12-18T09:07:15;30.90;;;17.57;;
15385;SDS011;7791;47.246;9.648;2022-12-18T09:09:43;29.53;;;15.97;;
15385;SDS011;7791;47.246;9.648;2022-12-18T09:12:12;31.63;;;18.83;;
15385;SDS011;7791;47.246;9.648;2022-12-18T09:14:39;37.80;;;19.97;;
15385;SDS011;7791;47.246;9.648;2022-12-18T09:17:05;22.40;;;14.53;;
15385;SDS011;7791;47.246;9.648;2022-12-18T09:19:31;38.47;;;21.07;;
15385;SDS011;7791;47.246;9.648;2022-12-18T09:21:57;36.87;;;19.93;;
15385;SDS011;7791;47.246;9.648;2022-12-18T09:24:23;30.43;;;15.90;;
15385;SDS011;7791;47.246;9.648;2022-12-18T09:26:52;31.43;;;18.27;;
15385;SDS011;7791;47.246;9.648;2022-12-18T09:29:18;24.20;;;13.97;;
15385;SDS011;7791;47.246;9.648;2022-12-18T09:31:46;22.50;;;13.70;;
15385;SDS011;7791;47.246;9.648;2022-12-18T09:34:17;18.50;;;11.60;;
15385;SDS011;7791;47.246;9.648;2022-12-18T09:36:43;26.30;;;14.13;;
15385;SDS011;7791;47.246;9.648;2022-12-18T09:39:09;24.93;;;14.27;;
15385;SDS011;7791;47.246;9.648;2022-12-18T09:41:43;22.67;;;13.03;;
15385;SDS011;7791;47.246;9.648;2022-12-18T09:44:12;24.83;;;14.57;;
15385;SDS011;7791;47.246;9.648;2022-12-18T09:46:43;18.90;;;11.83;;
15385;SDS011;7791;47.246;9.648;2022-12-18T09:49:18;21.73;;;12.53;;
15385;SDS011;7791;47.246;9.648;2022-12-18T09:51:57;19.70;;;12.43;;
15385;SDS011;7791;47.246;9.648;2022-12-18T09:54:31;17.67;;;9.87;;
15385;SDS011;7791;47.246;9.648;2022-12-18T09:57:05;16.03;;;9.70;;
15385;SDS011;7791;47.246;9.648;2022-12-18T09:59:36;21.60;;;10.87;;
15385;SDS011;7791;47.246;9.648;2022-12-18T10:02:15;20.30;;;12.10;;
15385;SDS011;7791;47.246;9.648;2022-12-18T10:04:43;42.53;;;17.57;;
15385;SDS011;7791;47.246;9.648;2022-12-18T10:07:13;61.87;;;25.43;;
15385;SDS011;7791;47.246;9.648;2022-12-18T10:09:46;42.23;;;18.03;;
15385;SDS011;7791;47.246;9.648;2022-12-18T10:12:20;34.50;;;15.10;;
15385;SDS011;7791;47.246;9.648;2022-12-18T10:14:52;25.87;;;14.20;;
15385;SDS011;7791;47.246;9.648;2022-12-18T10:17:28;23.23;;;12.30;;
15385;SDS011;7791;47.246;9.648;2022-12-18T10:20:05;17.83;;;9.63;;
15385;SDS011;7791;47.246;9.648;2022-12-18T10:22:40;15.97;;;9.90;;
15385;SDS011;7791;47.246;9.648;2022-12-18T10:25:18;21.93;;;14.37;;
15385;SDS011;7791;47.246;9.648;2022-12-18T10:27:49;19.50;;;13.27;;
15385;SDS011;7791;47.246;9.648;2022-12-18T10:30:22;16.43;;;9.30;;
15385;SDS011;7791;47.246;9.648;2022-12-18T10:32:51;10.97;;;7.77;;
15385;SDS011;7791;47.246;9.648;2022-12-18T10:35:19;12.20;;;7.87;;
15385;SDS011;7791;47.246;9.648;2022-12-18T10:38:00;10.27;;;6.37;;
15385;SDS011;7791;47.246;9.648;2022-12-18T10:40:31;13.53;;;7.30;;
15385;SDS011;7791;47.246;9.648;2022-12-18T10:43:05;17.80;;;11.30;;
15385;SDS011;7791;47.246;9.648;2022-12-18T10:45:36;15.17;;;9.97;;
15385;SDS011;7791;47.246;9.648;2022-12-18T10:48:04;12.87;;;8.37;;
15385;SDS011;7791;47.246;9.648;2022-12-18T10:50:46;14.97;;;8.80;;
15385;SDS011;7791;47.246;9.648;2022-12-18T10:53:17;14.17;;;8.47;;
15385;SDS011;7791;47.246;9.648;2022-12-18T10:55:47;14.80;;;9.20;;
15385;SDS011;7791;47.246;9.648;2022-12-18T10:58:18;12.43;;;8.73;;
15385;SDS011;7791;47.246;9.648;2022-12-18T11:01:01;16.93;;;8.80;;
15385;SDS011;7791;47.246;9.648;2022-12-18T11:03:32;14.70;;;8.80;;
15385;SDS011;7791;47.246;9.648;2022-12-18T11:06:03;12.27;;;9.07;;
15385;SDS011;7791;47.246;9.648;2022-12-18T11:08:33;25.53;;;15.53;;
15385;SDS011;7791;47.246;9.648;2022-12-18T11:11:04;26.80;;;14.63;;
15385;SDS011;7791;47.246;9.648;2022-12-18T11:13:41;25.40;;;14.20;;
15385;SDS011;7791;47.246;9.648;2022-12-18T11:16:18;33.10;;;17.80;;
15385;SDS011;7791;47.246;9.648;2022-12-18T11:18:46;33.23;;;18.20;;
15385;SDS011;7791;47.246;9.648;2022-12-18T11:21:12;36.20;;;19.07;;
15385;SDS011;7791;47.246;9.648;2022-12-18T11:23:46;37.70;;;19.67;;
15385;SDS011;7791;47.246;9.648;2022-12-18T11:26:14;31.03;;;17.23;;
15385;SDS011;7791;47.246;9.648;2022-12-18T11:28:40;34.93;;;18.23;;
15385;SDS011;7791;47.246;9.648;2022-12-18T11:31:22;39.30;;;19.73;;
15385;SDS011;7791;47.246;9.648;2022-12-18T11:33:54;39.83;;;20.47;;
15385;SDS011;7791;47.246;9.648;2022-12-18T11:36:25;42.47;;;20.30;;
15385;SDS011;7791;47.246;9.648;2022-12-18T11:41:50;39.60;;;18.77;;
15385;SDS011;7791;47.246;9.648;2022-12-18T11:44:21;41.03;;;19.43;;
15385;SDS011;7791;47.246;9.648;2022-12-18T11:46:52;39.17;;;19.03;;
15385;SDS011;7791;47.246;9.648;2022-12-18T11:49:26;42.67;;;19.63;;
15385;SDS011;7791;47.246;9.648;2022-12-18T11:51:58;40.97;;;18.60;;
15385;SDS011;7791;47.246;9.648;2022-12-18T11:54:34;41.03;;;18.83;;
15385;SDS011;7791;47.246;9.648;2022-12-18T11:57:02;45.27;;;19.90;;
15385;SDS011;7791;47.246;9.648;2022-12-18T11:59:35;47.13;;;20.60;;
15385;SDS011;7791;47.246;9.648;2022-12-18T12:02:12;47.33;;;21.53;;
15385;SDS011;7791;47.246;9.648;2022-12-18T12:07:54;51.23;;;20.80;;
15385;SDS011;7791;47.246;9.648;2022-12-18T12:10:32;47.33;;;20.70;;
15385;SDS011;7791;47.246;9.648;2022-12-18T12:13:14;45.23;;;20.67;;
15385;SDS011;7791;47.246;9.648;2022-12-18T12:15:51;44.23;;;20.20;;
15385;SDS011;7791;47.246;9.648;2022-12-18T12:18:36;44.43;;;19.53;;
15385;SDS011;7791;47.246;9.648;2022-12-18T12:21:16;46.30;;;19.47;;
15385;SDS011;7791;47.246;9.648;2022-12-18T12:23:50;43.10;;;18.43;;
15385;SDS011;7791;47.246;9.648;2022-12-18T12:26:26;39.90;;;17.53;;
15385;SDS011;7791;47.246;9.648;2022-12-18T12:28:59;46.30;;;17.97;;
15385;SDS011;7791;47.246;9.648;2022-12-18T12:31:38;53.03;;;21.90;;
15385;SDS011;7791;47.246;9.648;2022-12-18T12:34:20;44.80;;;19.63;;
15385;SDS011;7791;47.246;9.648;2022-12-18T12:36:55;48.27;;;21.23;;
15385;SDS011;7791;47.246;9.648;2022-12-18T12:39:35;46.73;;;19.20;;
15385;SDS011;7791;47.246;9.648;2022-12-18T12:42:03;39.33;;;17.93;;
15385;SDS011;7791;47.246;9.648;2022-12-18T12:44:32;40.03;;;18.20;;
15385;SDS011;7791;47.246;9.648;2022-12-18T12:47:04;42.77;;;18.17;;
15385;SDS011;7791;47.246;9.648;2022-12-18T12:49:37;41.50;;;18.37;;
15385;SDS011;7791;47.246;9.648;2022-12-18T12:52:07;41.60;;;18.27;;
15385;SDS011;7791;47.246;9.648;2022-12-18T12:54:39;40.67;;;18.00;;
15385;SDS011;7791;47.246;9.648;2022-12-18T12:57:07;43.63;;;18.00;;
15385;SDS011;7791;47.246;9.648;2022-12-18T12:59:40;37.10;;;16.80;;
15385;SDS011;7791;47.246;9.648;2022-12-18T13:02:18;42.10;;;18.17;;
15385;SDS011;7791;47.246;9.648;2022-12-18T13:04:57;44.67;;;18.47;;
15385;SDS011;7791;47.246;9.648;2022-12-18T13:07:29;40.77;;;18.47;;
15385;SDS011;7791;47.246;9.648;2022-12-18T13:10:24;42.87;;;18.17;;
15385;SDS011;7791;47.246;9.648;2022-12-18T13:13:00;39.50;;;17.30;;
15385;SDS011;7791;47.246;9.648;2022-12-18T13:15:30;40.03;;;18.30;;
15385;SDS011;7791;47.246;9.648;2022-12-18T13:18:05;41.20;;;18.73;;
15385;SDS011;7791;47.246;9.648;2022-12-18T13:20:40;39.43;;;18.13;;
15385;SDS011;7791;47.246;9.648;2022-12-18T13:23:27;41.83;;;18.53;;
15385;SDS011;7791;47.246;9.648;2022-12-18T13:25:57;43.23;;;18.07;;
15385;SDS011;7791;47.246;9.648;2022-12-18T13:34:17;44.87;;;19.23;;
15385;SDS011;7791;47.246;9.648;2022-12-18T13:36:45;44.53;;;18.70;;
15385;SDS011;7791;47.246;9.648;2022-12-18T13:39:23;47.73;;;20.13;;
15385;SDS011;7791;47.246;9.648;2022-12-18T13:45:01;49.00;;;21.77;;
15385;SDS011;7791;47.246;9.648;2022-12-18T13:47:47;50.10;;;21.17;;
15385;SDS011;7791;47.246;9.648;2022-12-18T13:50:20;55.13;;;22.47;;
15385;SDS011;7791;47.246;9.648;2022-12-18T13:52:51;55.70;;;23.60;;
15385;SDS011;7791;47.246;9.648;2022-12-18T13:55:21;60.27;;;25.33;;
15385;SDS011;7791;47.246;9.648;2022-12-18T13:57:48;57.70;;;24.97;;
15385;SDS011;7791;47.246;9.648;2022-12-18T14:00:22;61.27;;;25.43;;
15385;SDS011;7791;47.246;9.648;2022-12-18T14:02:53;58.20;;;23.80;;
15385;SDS011;7791;47.246;9.648;2022-12-18T14:05:21;71.30;;;25.67;;
15385;SDS011;7791;47.246;9.648;2022-12-18T14:07:49;63.80;;;24.90;;
15385;SDS011;7791;47.246;9.648;2022-12-18T14:10:21;59.87;;;25.00;;
15385;SDS011;7791;47.246;9.648;2022-12-18T14:12:48;56.40;;;24.10;;
15385;SDS011;7791;47.246;9.648;2022-12-18T14:15:20;65.97;;;25.13;;
15385;SDS011;7791;47.246;9.648;2022-12-18T14:17:55;67.50;;;25.67;;
15385;SDS011;7791;47.246;9.648;2022-12-18T14:20:27;71.07;;;27.27;;
15385;SDS011;7791;47.246;9.648;2022-12-18T14:22:54;69.13;;;26.47;;
15385;SDS011;7791;47.246;9.648;2022-12-18T14:25:24;74.43;;;27.67;;
15385;SDS011;7791;47.246;9.648;2022-12-18T14:27:52;75.53;;;28.80;;
15385;SDS011;7791;47.246;9.648;2022-12-18T14:30:28;76.23;;;28.17;;
15385;SDS011;7791;47.246;9.648;2022-12-18T14:32:59;82.40;;;27.27;;
15385;SDS011;7791;47.246;9.648;2022-12-18T14:35:27;71.50;;;28.37;;
15385;SDS011;7791;47.246;9.648;2022-12-18T14:37:53;72.13;;;26.83;;
15385;SDS011;7791;47.246;9.648;2022-12-18T14:40:34;69.00;;;28.20;;
15385;SDS011;7791;47.246;9.648;2022-12-18T14:43:01;72.17;;;28.07;;
15385;SDS011;7791;47.246;9.648;2022-12-18T14:45:38;79.07;;;27.10;;
15385;SDS011;7791;47.246;9.648;2022-12-18T14:48:11;75.10;;;27.33;;
15385;SDS011;7791;47.246;9.648;2022-12-18T14:50:40;75.93;;;27.60;;
15385;SDS011;7791;47.246;9.648;2022-12-18T14:53:15;64.90;;;26.50;;
15385;SDS011;7791;47.246;9.648;2022-12-18T14:55:47;77.70;;;28.27;;
15385;SDS011;7791;47.246;9.648;2022-12-18T14:58:14;78.17;;;28.27;;
15385;SDS011;7791;47.246;9.648;2022-12-18T15:00:42;74.70;;;28.10;;
15385;SDS011;7791;47.246;9.648;2022-12-18T15:03:12;73.80;;;27.13;;
15385;SDS011;7791;47.246;9.648;2022-12-18T15:05:43;75.43;;;27.37;;
15385;SDS011;7791;47.246;9.648;2022-12-18T15:10:58;67.03;;;26.77;;
15385;SDS011;7791;47.246;9.648;2022-12-18T15:13:28;72.87;;;27.07;;
15385;SDS011;7791;47.246;9.648;2022-12-18T15:16:00;71.30;;;26.17;;
15385;SDS011;7791;47.246;9.648;2022-12-18T15:18:38;72.23;;;25.90;;
15385;SDS011;7791;47.246;9.648;2022-12-18T15:21:14;87.70;;;34.60;;